Terminal Aerodrome Forecast
Issued by NWS

Home | Current Version | Previous Version | Text Only | Print | Product List | Glossary On
Versions: 1 2 3 4 5 6 7 8 9 10 11 12 13 14 15 16 17 18
000
FTUS46 KSGX 220824 AAB
TAFCRQ
TAF AMD
KCRQ 220824Z 2208/2306 VRB04KT P6SM SCT009
     FM220930 VRB03KT P6SM BKN008
     FM221530 VRB04KT P6SM SCT010
     FM221900 25009KT P6SM SKC
     FM230200 VRB04KT P6SM SCT012=

USA.gov is the U.S. government's official web portal to all federal, state and local government web resources and services.